Time;durP1;ratioP1;P1;durP2;ratioP2;P2;SDS_P1;SDS_P2;PMS_P1;PMS_P2;Temp;Humidity;BMP_temperature;BMP_pressure;BME280_temperature;BME280_humidity;BME280_pressure;Samples;Min_cycle;Max_cycle;Signal;HPM_P1;HPM_P2
2022/05/20 00:02:14;;;;;;;13.70;5.80;;;19.50;99.90;;;;;;4975319;28;20423;-72
2022/05/20 00:04:40;;;;;;;4.60;4.30;;;19.60;99.90;;;;;;4975497;28;20180;-72
2022/05/20 00:07:06;;;;;;;8.73;5.33;;;19.60;99.90;;;;;;4975418;28;20184;-73
2022/05/20 00:09:32;;;;;;;9.40;5.30;;;19.50;99.90;;;;;;4975439;28;20184;-72
2022/05/20 00:11:57;;;;;;;5.53;4.60;;;19.50;99.90;;;;;;4975107;28;20196;-72
2022/05/20 00:14:23;;;;;;;4.27;3.87;;;19.50;99.90;;;;;;4975512;28;20467;-72
2022/05/20 00:16:48;;;;;;;7.00;5.40;;;19.60;99.90;;;;;;4975326;28;20184;-72
2022/05/20 00:19:14;;;;;;;8.43;4.93;;;19.60;99.90;;;;;;4975282;28;20565;-72
2022/05/20 00:21:39;;;;;;;10.67;4.90;;;19.50;99.90;;;;;;4974942;28;20216;-72
2022/05/20 00:24:05;;;;;;;5.90;5.40;;;19.40;99.90;;;;;;4975557;28;20653;-72
2022/05/20 00:26:31;;;;;;;15.27;5.40;;;19.40;99.90;;;;;;4975060;28;20188;-71
2022/05/20 00:28:57;;;;;;;5.40;4.90;;;19.40;99.90;;;;;;4975276;28;20183;-72
2022/05/20 00:31:25;;;;;;;7.50;5.40;;;19.40;99.90;;;;;;4974636;28;20478;-71
2022/05/20 00:33:51;;;;;;;8.23;5.30;;;19.30;99.90;;;;;;4974876;28;20644;-72
2022/05/20 00:36:17;;;;;;;8.30;5.27;;;19.30;99.90;;;;;;4975674;28;20470;-72
2022/05/20 00:38:43;;;;;;;8.23;5.30;;;19.20;99.90;;;;;;4975893;28;20767;-72
2022/05/20 00:41:09;;;;;;;8.83;4.77;;;19.20;99.90;;;;;;4975651;28;20207;-72
2022/05/20 00:43:37;;;;;;;12.03;4.97;;;19.20;99.90;;;;;;4975425;28;20560;-73
2022/05/20 00:46:07;;;;;;;8.43;5.33;;;19.10;99.90;;;;;;4975584;28;20418;-72
2022/05/20 00:48:33;;;;;;;9.77;5.57;;;19.00;99.90;;;;;;4974678;28;20415;-72
2022/05/20 00:51:03;;;;;;;5.03;4.40;;;19.00;99.90;;;;;;4974720;28;20430;-72
2022/05/20 00:53:34;;;;;;;9.50;5.43;;;18.90;99.90;;;;;;4974603;28;20829;-73
2022/05/20 00:56:02;;;;;;;5.00;4.57;;;18.90;99.90;;;;;;4974800;28;20407;-71
2022/05/20 00:58:27;;;;;;;5.30;4.90;;;18.80;99.90;;;;;;4974508;28;20415;-72
2022/05/20 02:31:48;;;;;;;10.10;6.87;;;17.30;99.90;;;;;;5662383;23;20507;-72
2022/05/20 02:34:13;;;;;;;7.30;5.80;;;17.30;99.90;;;;;;4940860;29;20476;-70
2022/05/20 02:36:40;;;;;;;8.77;6.07;;;17.10;99.90;;;;;;4933887;29;20441;-72
2022/05/20 02:39:15;;;;;;;8.90;6.03;;;17.10;99.90;;;;;;4934855;29;20546;-72
2022/05/20 02:41:45;;;;;;;6.50;5.90;;;17.00;99.90;;;;;;4934683;29;20905;-72
2022/05/20 02:44:12;;;;;;;6.90;6.27;;;17.00;99.90;;;;;;4934723;29;20433;-72
2022/05/20 02:46:39;;;;;;;6.90;6.30;;;16.90;99.90;;;;;;4934297;29;20785;-73
2022/05/20 02:49:05;;;;;;;9.00;6.20;;;16.90;99.90;;;;;;4934799;29;20409;-72
2022/05/20 02:51:31;;;;;;;6.70;6.10;;;16.80;99.90;;;;;;4937851;29;20440;-73
2022/05/20 02:53:56;;;;;;;8.30;6.17;;;16.80;99.90;;;;;;4937872;29;20839;-72
2022/05/20 02:56:22;;;;;;;6.80;6.13;;;16.70;99.90;;;;;;4938227;29;20178;-71
2022/05/20 03:04:15;;;;;;;7.60;6.80;;;16.70;99.90;;;;;;4938209;29;20419;-73
2022/05/20 03:06:45;;;;;;;13.00;7.07;;;16.80;99.90;;;;;;4937915;29;20421;-72
2022/05/20 03:09:12;;;;;;;10.03;6.37;;;16.80;99.90;;;;;;4937697;29;20181;-73
2022/05/20 03:11:41;;;;;;;6.63;5.83;;;16.80;99.90;;;;;;4937652;29;20428;-72
2022/05/20 03:14:09;;;;;;;7.90;7.20;;;16.80;99.90;;;;;;4937524;29;20820;-73
2022/05/20 03:16:37;;;;;;;7.40;6.70;;;16.80;99.90;;;;;;4937738;29;20500;-72
2022/05/20 03:19:04;;;;;;;8.27;7.07;;;16.80;99.90;;;;;;4937394;29;20901;-73
2022/05/20 03:21:30;;;;;;;8.60;7.50;;;16.80;99.90;;;;;;4937556;29;20429;-72
2022/05/20 03:23:55;;;;;;;7.40;6.70;;;16.80;99.90;;;;;;4937716;29;20416;-72
2022/05/20 03:26:21;;;;;;;10.90;7.40;;;16.80;99.90;;;;;;4937790;29;20417;-72
2022/05/20 03:28:47;;;;;;;7.13;6.43;;;16.80;99.90;;;;;;4937496;29;20681;-72
2022/05/20 03:31:13;;;;;;;10.10;7.40;;;16.90;99.90;;;;;;4937308;29;20696;-73
2022/05/20 03:33:41;;;;;;;12.60;6.90;;;16.90;99.90;;;;;;4937971;29;20194;-73
2022/05/20 03:36:07;;;;;;;12.30;7.90;;;16.90;99.90;;;;;;4937353;29;20936;-73
2022/05/20 03:38:34;;;;;;;9.80;7.43;;;16.90;99.90;;;;;;4936744;29;20922;-72
2022/05/20 03:41:00;;;;;;;8.53;7.30;;;16.90;99.90;;;;;;4936870;29;20429;-73
2022/05/20 03:43:26;;;;;;;8.47;6.57;;;16.90;99.90;;;;;;4937395;29;20767;-73
2022/05/20 03:45:52;;;;;;;8.77;7.27;;;17.00;99.90;;;;;;4937201;29;20252;-72
2022/05/20 03:48:18;;;;;;;8.93;8.10;;;17.00;99.90;;;;;;4937442;29;20416;-72
2022/05/20 03:50:44;;;;;;;8.43;7.57;;;17.00;99.90;;;;;;4936775;29;20910;-72
2022/05/20 03:53:09;;;;;;;10.80;7.93;;;17.00;99.90;;;;;;4937045;29;20621;-72
2022/05/20 03:55:35;;;;;;;7.77;6.90;;;17.00;99.90;;;;;;4936874;29;20181;-72
2022/05/20 03:58:00;;;;;;;8.67;7.87;;;17.10;99.90;;;;;;4937054;29;20181;-72
2022/05/20 04:00:26;;;;;;;8.27;7.30;;;17.10;99.90;;;;;;4936645;29;20178;-73
2022/05/20 04:02:52;;;;;;;11.60;7.10;;;17.20;99.90;;;;;;4936628;29;20193;-73
2022/05/20 04:05:17;;;;;;;10.13;7.00;;;17.20;99.90;;;;;;4937075;29;20417;-73
2022/05/20 04:07:43;;;;;;;13.17;7.40;;;17.30;99.90;;;;;;4937222;29;20177;-73
2022/05/20 04:10:09;;;;;;;14.37;7.70;;;17.40;99.90;;;;;;4937091;29;20669;-74
2022/05/20 04:12:38;;;;;;;10.80;7.23;;;17.50;99.90;;;;;;4936919;29;20545;-73
2022/05/20 04:15:07;;;;;;;14.73;7.63;;;17.60;99.90;;;;;;4936775;29;20426;-73
2022/05/20 04:17:33;;;;;;;11.37;8.03;;;17.70;99.90;;;;;;4936727;29;20429;-73
2022/05/20 04:19:59;;;;;;;8.43;7.63;;;17.70;99.90;;;;;;4936984;29;20421;-74
2022/05/20 04:22:34;;;;;;;7.20;6.50;;;17.70;99.90;;;;;;4936070;29;20197;-73
2022/05/20 04:25:00;;;;;;;13.20;7.30;;;17.80;99.90;;;;;;4936109;29;20189;-73
2022/05/20 04:27:27;;;;;;;12.87;8.50;;;17.80;99.90;;;;;;4936115;29;20418;-75
2022/05/20 04:29:53;;;;;;;6.87;6.23;;;17.80;99.90;;;;;;4936140;29;20173;-72
2022/05/20 04:32:19;;;;;;;9.40;7.77;;;17.80;99.90;;;;;;4935713;29;20469;-72
2022/05/20 04:34:44;;;;;;;12.53;7.90;;;17.80;99.90;;;;;;4936349;29;20795;-73
2022/05/20 04:37:10;;;;;;;10.33;7.67;;;17.80;99.90;;;;;;4935780;29;20181;-73
2022/05/20 04:39:36;;;;;;;8.40;7.60;;;17.80;99.90;;;;;;4936250;29;20200;-72
2022/05/20 04:47:31;;;;;;;11.63;7.27;;;18.00;99.90;;;;;;4935896;29;20499;-73
2022/05/20 04:49:57;;;;;;;8.77;7.90;;;18.10;99.90;;;;;;4935936;29;20529;-75
2022/05/20 04:52:23;;;;;;;10.27;8.00;;;18.20;99.90;;;;;;4935881;29;21037;-73
2022/05/20 04:54:51;;;;;;;11.10;7.17;;;18.40;99.90;;;;;;4936138;29;20209;-73
2022/05/20 04:57:25;;;;;;;8.10;6.83;;;18.50;99.90;;;;;;4935678;29;20173;-73
2022/05/20 04:59:53;;;;;;;8.37;7.57;;;18.70;99.90;;;;;;4935456;29;20417;-73
2022/05/20 05:02:19;;;;;;;8.13;6.43;;;18.90;99.90;;;;;;4935184;29;20437;-72
2022/05/20 05:04:45;;;;;;;8.23;6.60;;;19.10;99.90;;;;;;4935475;29;20452;-72
2022/05/20 05:07:11;;;;;;;7.80;7.00;;;19.30;99.90;;;;;;4935200;29;20468;-74
2022/05/20 05:09:38;;;;;;;12.93;6.90;;;19.90;99.90;;;;;;4935757;29;20204;-73
2022/05/20 05:12:05;;;;;;;6.90;6.20;;;21.30;99.90;;;;;;4935071;29;20444;-74
2022/05/20 05:14:36;;;;;;;6.93;5.50;;;22.60;99.90;;;;;;4935814;29;21021;-74
2022/05/20 05:17:04;;;;;;;6.47;5.23;;;24.00;99.90;;;;;;4935970;29;20413;-74
2022/05/20 05:19:30;;;;;;;6.30;5.73;;;24.90;99.90;;;;;;4936163;29;20417;-73
2022/05/20 05:21:55;;;;;;;7.47;5.37;;;26.10;99.90;;;;;;4929563;29;20461;-73
2022/05/20 05:24:21;;;;;;;12.30;5.03;;;27.00;99.90;;;;;;4932977;29;20236;-74
2022/05/20 05:26:46;;;;;;;4.60;4.20;;;27.60;99.90;;;;;;4934380;29;20662;-74
2022/05/20 05:29:12;;;;;;;7.47;4.80;;;28.00;99.90;;;;;;4952080;29;20203;-74
2022/05/20 05:31:38;;;;;;;8.40;5.50;;;28.00;99.90;;;;;;4954349;28;20212;-75
2022/05/20 05:34:03;;;;;;;5.37;4.73;;;27.90;99.90;;;;;;4954283;28;21032;-74
2022/05/20 05:36:29;;;;;;;5.50;5.00;;;28.60;99.90;;;;;;4954802;28;20177;-74
2022/05/20 05:38:55;;;;;;;7.77;4.80;;;28.50;99.90;;;;;;4954671;28;20180;-75
2022/05/20 05:41:20;;;;;;;7.67;4.40;;;28.60;99.90;;;;;;4953237;29;20578;-74
2022/05/20 05:43:46;;;;;;;4.93;4.40;;;28.30;99.90;;;;;;4954838;28;20177;-74
2022/05/20 05:46:13;;;;;;;4.87;4.10;;;28.30;99.90;;;;;;4954720;28;20189;-74
2022/05/20 05:48:38;;;;;;;5.83;4.80;;;28.20;99.90;;;;;;4954603;28;20236;-74
2022/05/20 05:51:04;;;;;;;7.80;5.03;;;28.10;99.90;;;;;;4954469;28;20432;-74
2022/05/20 05:53:30;;;;;;;8.30;3.97;;;28.00;99.90;;;;;;4954251;28;20292;-75
2022/05/20 05:55:58;;;;;;;7.13;4.73;;;27.40;99.90;;;;;;4954228;28;20499;-74
2022/05/20 05:58:25;;;;;;;4.70;4.37;;;27.20;99.90;;;;;;4954398;28;20214;-73
2022/05/20 06:00:52;;;;;;;4.93;3.73;;;27.10;99.90;;;;;;4954008;28;20415;-75
2022/05/20 06:03:18;;;;;;;4.20;3.13;;;27.10;99.90;;;;;;4954234;28;20423;-73
2022/05/20 06:05:45;;;;;;;8.23;4.07;;;27.00;99.90;;;;;;4954337;28;20790;-74
2022/05/20 06:08:10;;;;;;;3.90;3.60;;;26.90;99.90;;;;;;4954050;28;20188;-75
2022/05/20 06:10:36;;;;;;;3.80;3.40;;;27.00;99.90;;;;;;4953625;28;20431;-74
2022/05/20 06:13:02;;;;;;;3.60;3.30;;;27.10;99.90;;;;;;4954040;28;20205;-74
2022/05/20 06:15:28;;;;;;;5.93;3.60;;;27.10;99.90;;;;;;4954490;28;20600;-74
2022/05/20 06:17:55;;;;;;;3.73;3.30;;;27.20;99.90;;;;;;4954277;28;20434;-74
2022/05/20 06:20:23;;;;;;;3.60;3.30;;;27.20;99.90;;;;;;4954230;28;20476;-74
2022/05/20 06:22:50;;;;;;;3.20;3.00;;;27.30;99.90;;;;;;4953947;28;20479;-74
2022/05/20 06:25:16;;;;;;;4.13;3.73;;;27.60;99.90;;;;;;4954042;28;20443;-74
2022/05/20 06:27:42;;;;;;;5.87;3.87;;;27.80;99.90;;;;;;4954173;28;20420;-74
2022/05/20 06:30:11;;;;;;;4.77;3.27;;;28.20;99.90;;;;;;4954152;28;20420;-74
2022/05/20 06:32:37;;;;;;;7.90;3.43;;;28.50;99.90;;;;;;4953712;28;20455;-74
2022/05/20 06:40:47;;;;;;;4.10;3.40;;;28.90;99.90;;;;;;4954081;29;20769;-74
2022/05/20 06:43:14;;;;;;;3.00;2.63;;;28.80;99.90;;;;;;4953851;28;20428;-74
2022/05/20 06:45:41;;;;;;;9.03;4.53;;;29.00;99.90;;;;;;4955253;28;20444;-74
2022/05/20 06:48:07;;;;;;;3.37;3.07;;;29.00;99.90;;;;;;4954553;28;20428;-74
2022/05/20 06:50:36;;;;;;;9.27;3.63;;;28.80;99.90;;;;;;4953927;29;20791;-71
2022/05/20 06:53:02;;;;;;;3.10;2.90;;;28.60;99.90;;;;;;4953779;28;20459;-74
2022/05/20 06:55:27;;;;;;;3.97;3.40;;;28.90;99.90;;;;;;4953964;28;20412;-75
2022/05/20 06:57:53;;;;;;;4.43;3.90;;;29.30;99.90;;;;;;4953966;28;20184;-74
2022/05/20 07:00:18;;;;;;;3.83;3.40;;;29.60;99.90;;;;;;4954058;28;20183;-74
2022/05/20 07:02:44;;;;;;;3.83;3.53;;;29.90;99.90;;;;;;4953537;28;20193;-73
2022/05/20 07:05:10;;;;;;;3.53;3.00;;;29.80;99.90;;;;;;4953786;28;20248;-74
2022/05/20 07:07:36;;;;;;;3.27;2.97;;;30.10;99.90;;;;;;4953739;28;20260;-74
2022/05/20 07:10:02;;;;;;;5.43;3.10;;;30.20;99.90;;;;;;4953669;28;20412;-74
2022/05/20 07:12:28;;;;;;;3.53;3.00;;;29.80;99.90;;;;;;4953396;28;20444;-74
2022/05/20 07:14:53;;;;;;;3.60;3.20;;;30.00;99.90;;;;;;4954008;28;20452;-74
2022/05/20 07:17:20;;;;;;;6.17;3.53;;;29.90;99.90;;;;;;4953897;28;20549;-74
2022/05/20 07:19:46;;;;;;;3.77;3.47;;;30.00;99.90;;;;;;4953678;28;20169;-73
2022/05/20 07:22:12;;;;;;;4.03;3.27;;;30.10;99.90;;;;;;4953507;28;20593;-74
2022/05/20 07:24:39;;;;;;;3.60;3.13;;;30.40;99.90;;;;;;4954045;28;20428;-74
2022/05/20 07:27:05;;;;;;;5.17;3.00;;;30.20;99.90;;;;;;4953631;28;20419;-73
2022/05/20 07:29:30;;;;;;;4.13;3.77;;;30.20;99.90;;;;;;4953326;28;20460;-74
2022/05/20 07:31:56;;;;;;;7.70;3.00;;;30.20;99.90;;;;;;4953107;28;20865;-75
2022/05/20 07:34:21;;;;;;;4.57;3.10;;;30.50;99.90;;;;;;4953576;28;20204;-74
2022/05/20 07:36:47;;;;;;;6.60;3.13;;;30.90;99.90;;;;;;4955751;28;20183;-74
2022/05/20 07:39:12;;;;;;;3.43;3.13;;;31.20;99.90;;;;;;4956777;28;20227;-74
2022/05/20 07:41:38;;;;;;;9.87;3.23;;;31.10;99.90;;;;;;4956826;28;20188;-74
2022/05/20 07:44:04;;;;;;;4.67;3.50;;;31.20;99.90;;;;;;4956903;28;20721;-73
2022/05/20 07:46:30;;;;;;;3.03;2.83;;;31.30;99.90;;;;;;4957348;28;20597;-74
2022/05/20 07:48:56;;;;;;;3.17;2.80;;;31.50;99.90;;;;;;4956842;28;20212;-73
2022/05/20 07:51:24;;;;;;;3.23;3.03;;;31.70;99.90;;;;;;4956590;28;21000;-75
2022/05/20 07:54:02;;;;;;;4.50;2.90;;;31.60;99.90;;;;;;4953463;28;20219;-76
2022/05/20 07:56:33;;;;;;;4.30;2.93;;;31.80;99.90;;;;;;4937176;29;20436;-74
2022/05/20 07:59:17;;;;;;;5.17;3.87;;;32.00;99.90;;;;;;4936948;29;20425;-74
2022/05/20 08:01:48;;;;;;;4.73;3.57;;;31.80;99.90;;;;;;4937087;29;20989;-74
2022/05/20 08:05:01;;;;;;;3.83;3.50;;;31.90;99.90;;;;;;4942516;29;20433;-74
2022/05/20 08:07:32;;;;;;;3.23;2.93;;;32.60;99.90;;;;;;4940792;29;20429;-74
2022/05/20 08:10:08;;;;;;;3.73;3.37;;;32.80;99.90;;;;;;4944980;28;20428;-73
2022/05/20 08:12:33;;;;;;;4.07;3.67;;;32.90;99.90;;;;;;4938187;29;20448;-73
2022/05/20 08:14:59;;;;;;;5.13;3.07;;;32.90;99.90;;;;;;4944634;28;20524;-74
2022/05/20 08:17:25;;;;;;;3.87;2.77;;;32.60;99.90;;;;;;4935303;29;20185;-75
2022/05/20 08:19:53;;;;;;;6.33;4.10;;;32.80;99.90;;;;;;4927095;29;20464;-76
2022/05/20 08:22:22;;;;;;;6.23;3.60;;;33.20;99.90;;;;;;4917073;29;20942;-75
2022/05/20 08:24:52;;;;;;;4.23;3.50;;;33.40;99.90;;;;;;4954042;29;20431;-75
2022/05/20 08:27:20;;;;;;;3.63;3.33;;;33.60;99.90;;;;;;4955280;28;20522;-74
2022/05/20 08:29:45;;;;;;;4.47;3.67;;;33.90;99.90;;;;;;4939417;28;20516;-73
2022/05/20 08:32:12;;;;;;;4.53;3.30;;;33.70;99.90;;;;;;4950601;29;20568;-74
2022/05/20 08:34:38;;;;;;;11.97;3.60;;;34.10;99.90;;;;;;4949530;28;20205;-74
2022/05/20 08:37:04;;;;;;;3.70;3.40;;;34.10;99.90;;;;;;4936752;29;20431;-74
2022/05/20 08:39:29;;;;;;;4.23;3.23;;;34.10;99.90;;;;;;4933322;29;20225;-74
2022/05/20 08:41:55;;;;;;;5.73;3.63;;;34.20;99.90;;;;;;4918140;29;20217;-73
2022/05/20 08:44:23;;;;;;;5.30;3.70;;;34.40;99.90;;;;;;4943638;28;20205;-72
2022/05/20 08:46:50;;;;;;;4.07;3.63;;;34.40;99.90;;;;;;4936888;29;20550;-75
2022/05/20 08:49:18;;;;;;;4.80;4.27;;;34.50;99.90;;;;;;4937619;28;20435;-74
2022/05/20 08:51:50;;;;;;;6.47;3.57;;;34.40;99.50;;;;;;4945771;29;20515;-75
2022/05/20 08:54:16;;;;;;;8.13;3.60;;;34.20;99.70;;;;;;4950487;28;20523;-75
2022/05/20 08:56:43;;;;;;;3.67;3.20;;;34.40;99.90;;;;;;4935930;29;20782;-74
2022/05/20 08:59:13;;;;;;;4.07;3.67;;;34.20;98.90;;;;;;4939141;29;20532;-74
2022/05/20 09:01:42;;;;;;;7.30;4.10;;;34.60;98.30;;;;;;4935872;29;20887;-74
2022/05/20 09:04:10;;;;;;;5.60;3.80;;;34.80;98.70;;;;;;4943181;29;20425;-74
2022/05/20 09:06:55;;;;;;;4.70;3.57;;;34.80;98.70;;;;;;4935726;29;20463;-74
2022/05/20 09:09:21;;;;;;;4.50;3.80;;;34.80;98.40;;;;;;4935396;29;20447;-74
2022/05/20 09:11:54;;;;;;;5.40;3.67;;;35.30;97.60;;;;;;4935343;29;20507;-72
2022/05/20 09:17:12;;;;;;;10.70;3.80;;;35.70;97.30;;;;;;4935548;29;20880;-72
2022/05/20 09:19:52;;;;;;;7.60;3.20;;;35.60;95.80;;;;;;4945827;29;20408;-74
2022/05/20 09:22:28;;;;;;;7.80;4.30;;;35.50;95.00;;;;;;4954366;29;20436;-74
2022/05/20 09:24:54;;;;;;;3.57;3.33;;;35.30;96.70;;;;;;4944629;28;20428;-73
2022/05/20 09:27:29;;;;;;;3.73;3.30;;;35.40;95.50;;;;;;4935164;29;20460;-74
2022/05/20 09:30:00;;;;;;;4.30;4.00;;;35.70;94.80;;;;;;4938078;29;20429;-74
2022/05/20 09:32:37;;;;;;;5.37;3.10;;;35.70;95.10;;;;;;4934866;29;20456;-72
2022/05/20 09:35:18;;;;;;;6.03;3.90;;;36.10;96.00;;;;;;4934031;29;20479;-73
2022/05/20 09:37:46;;;;;;;7.93;4.30;;;36.30;94.20;;;;;;4934945;29;20421;-73
2022/05/20 09:40:20;;;;;;;5.33;3.80;;;35.60;92.90;;;;;;4937631;29;20499;-73
2022/05/20 09:43:02;;;;;;;3.63;3.27;;;35.30;93.50;;;;;;4934539;29;20830;-73
2022/05/20 09:45:34;;;;;;;4.97;3.50;;;35.00;93.10;;;;;;4934010;29;20464;-74
2022/05/20 09:47:59;;;;;;;5.07;3.20;;;34.70;94.70;;;;;;4937911;29;20491;-74
2022/05/20 09:50:31;;;;;;;4.00;3.70;;;34.80;94.60;;;;;;4943161;28;20521;-74
2022/05/20 09:53:02;;;;;;;4.17;3.80;;;34.60;94.80;;;;;;4934626;29;20232;-73
2022/05/20 09:55:38;;;;;;;5.63;4.10;;;35.20;95.30;;;;;;4934329;29;20433;-74
2022/05/20 09:58:27;;;;;;;6.03;3.53;;;35.60;94.50;;;;;;4935305;29;20413;-75
2022/05/20 10:01:02;;;;;;;7.70;4.13;;;35.70;94.60;;;;;;4930321;29;20512;-73
2022/05/20 10:03:33;;;;;;;6.03;3.80;;;35.70;94.10;;;;;;4944545;29;20793;-73
2022/05/20 10:06:14;;;;;;;7.93;4.37;;;35.70;93.50;;;;;;4939159;29;20433;-74
2022/05/20 10:08:50;;;;;;;6.03;3.50;;;35.10;94.70;;;;;;4934708;29;20457;-74
2022/05/20 10:11:21;;;;;;;6.87;4.33;;;35.30;93.20;;;;;;4933987;29;20457;-73
2022/05/20 10:14:04;;;;;;;7.73;4.00;;;35.40;93.10;;;;;;4934375;29;20907;-74
2022/05/20 10:16:44;;;;;;;4.83;3.40;;;35.20;93.00;;;;;;4937878;29;20421;-73
2022/05/20 10:19:20;;;;;;;7.60;4.50;;;35.30;93.80;;;;;;4947123;29;20787;-74
2022/05/20 10:22:39;;;;;;;6.17;3.73;;;35.50;94.40;;;;;;4937161;28;20445;-74
2022/05/20 10:25:45;;;;;;;7.27;4.17;;;35.70;93.20;;;;;;4911856;29;20505;-74
2022/05/20 10:34:10;;;;;;;6.90;3.63;;;36.20;91.60;;;;;;4934400;29;20907;-75
2022/05/20 10:36:51;;;;;;;5.53;3.83;;;35.50;91.80;;;;;;4936859;29;20427;-75
2022/05/20 10:39:37;;;;;;;5.20;3.00;;;35.60;91.90;;;;;;4934145;29;20826;-74
2022/05/20 10:42:21;;;;;;;4.60;3.83;;;35.80;90.80;;;;;;4934986;28;20469;-74
2022/05/20 10:48:35;;;;;;;3.83;2.60;;;36.10;90.50;;;;;;4915203;29;20454;-74
2022/05/20 10:51:37;;;;;;;11.70;4.10;;;36.40;89.80;;;;;;4919212;29;20449;-74
2022/05/20 10:54:29;;;;;;;6.00;3.07;;;36.30;89.20;;;;;;4934030;29;20460;-74
2022/05/20 10:57:28;;;;;;;4.10;3.13;;;36.00;88.90;;;;;;4933786;29;20873;-74
2022/05/20 11:00:13;;;;;;;5.20;3.20;;;35.60;86.10;;;;;;4933920;29;20415;-74
2022/05/20 11:02:41;;;;;;;12.10;3.70;;;35.60;86.50;;;;;;4941416;29;20448;-74
2022/05/20 11:06:01;;;;;;;5.97;3.43;;;35.30;88.80;;;;;;4952983;28;20421;-73
2022/05/20 11:08:48;;;;;;;5.77;3.10;;;35.40;88.00;;;;;;4897459;29;21181;-74
2022/05/20 11:11:34;;;;;;;5.57;2.80;;;35.10;85.80;;;;;;4934783;29;20577;-73
2022/05/20 11:14:06;;;;;;;5.73;3.20;;;35.00;87.10;;;;;;4937265;29;20910;-73
2022/05/20 11:16:41;;;;;;;5.97;4.10;;;34.80;86.60;;;;;;4937502;29;20440;-74
2022/05/20 11:19:28;;;;;;;3.67;3.13;;;34.50;86.00;;;;;;4935969;29;20413;-74
2022/05/20 11:22:32;;;;;;;8.93;4.03;;;34.50;85.50;;;;;;4935110;29;20511;-72
2022/05/20 11:25:13;;;;;;;6.70;4.30;;;35.00;92.60;;;;;;4935568;29;21004;-74
2022/05/20 11:27:45;;;;;;;5.90;4.13;;;35.20;92.90;;;;;;4935451;29;21048;-74
2022/05/20 11:30:22;;;;;;;4.20;3.90;;;35.20;94.30;;;;;;4935642;29;20421;-73
2022/05/20 11:33:26;;;;;;;5.40;4.50;;;34.90;94.60;;;;;;4935368;29;20460;-75
2022/05/20 11:36:12;;;;;;;5.63;4.43;;;34.80;95.90;;;;;;4934967;29;20925;-74
2022/05/20 11:39:13;;;;;;;8.40;4.90;;;34.90;95.60;;;;;;4918951;29;20497;-73
2022/05/20 11:42:18;;;;;;;16.13;4.70;;;34.90;95.90;;;;;;4927956;29;20515;-73
2022/05/20 11:44:54;;;;;;;7.43;4.47;;;34.70;96.30;;;;;;4931261;29;20468;-75
2022/05/20 11:47:25;;;;;;;5.43;4.23;;;34.90;94.90;;;;;;4943958;29;20416;-77
2022/05/20 11:49:51;;;;;;;6.17;4.10;;;35.00;93.90;;;;;;4932676;29;20946;-77
2022/05/20 11:52:31;;;;;;;8.70;4.40;;;35.10;94.60;;;;;;4935591;28;20435;-74
2022/05/20 11:55:02;;;;;;;8.10;4.73;;;35.20;93.80;;;;;;4933359;29;20208;-74
2022/05/20 11:57:38;;;;;;;16.27;5.47;;;34.90;93.60;;;;;;4928033;29;20420;-74
2022/05/20 12:00:13;;;;;;;6.57;4.70;;;34.80;93.30;;;;;;4931325;29;21214;-73
2022/05/20 12:02:55;;;;;;;8.70;4.97;;;34.40;94.10;;;;;;4925514;29;20473;-74
2022/05/20 12:05:24;;;;;;;4.70;3.30;;;34.30;92.40;;;;;;4930782;29;20933;-74
2022/05/20 12:07:50;;;;;;;6.37;3.73;;;34.00;91.00;;;;;;4935012;29;20428;-72
2022/05/20 12:10:31;;;;;;;4.30;3.60;;;34.10;89.20;;;;;;4935469;29;20780;-73
2022/05/20 12:13:08;;;;;;;10.90;3.70;;;34.10;89.20;;;;;;4935628;29;20445;-74
2022/05/20 12:15:40;;;;;;;6.43;3.40;;;34.20;91.40;;;;;;4941086;29;20428;-74
2022/05/20 12:24:38;;;;;;;4.50;4.10;;;33.20;93.80;;;;;;4936040;29;21229;-74
2022/05/20 12:27:11;;;;;;;6.90;4.90;;;32.80;96.10;;;;;;4935984;29;20536;-73
2022/05/20 12:29:39;;;;;;;6.10;4.10;;;32.90;94.70;;;;;;4933952;29;20428;-74
2022/05/20 12:32:26;;;;;;;5.60;3.93;;;33.00;94.60;;;;;;4942141;29;20988;-73
2022/05/20 12:35:11;;;;;;;5.20;3.30;;;33.30;94.60;;;;;;4943584;29;21051;-73
2022/05/20 12:37:43;;;;;;;7.70;3.83;;;33.30;91.30;;;;;;4941886;29;20428;-73
2022/05/20 12:40:40;;;;;;;6.50;3.70;;;33.30;90.70;;;;;;4941250;28;20408;-73
2022/05/20 12:43:08;;;;;;;3.57;3.13;;;33.00;89.80;;;;;;4940161;29;20918;-73
2022/05/20 12:45:50;;;;;;;4.23;3.20;;;33.00;90.00;;;;;;4942309;29;20422;-74
2022/05/20 12:48:24;;;;;;;3.23;2.93;;;33.10;90.00;;;;;;4940796;29;20778;-73
2022/05/20 12:51:06;;;;;;;4.27;3.63;;;33.10;89.90;;;;;;4942806;29;20416;-72
2022/05/20 12:53:34;;;;;;;8.93;3.77;;;33.10;89.30;;;;;;4943253;28;21007;-73
2022/05/20 12:56:00;;;;;;;8.33;3.80;;;32.90;87.80;;;;;;4942557;29;20469;-73
2022/05/20 12:58:29;;;;;;;7.30;3.70;;;32.80;90.00;;;;;;4941259;29;20421;-73
2022/05/20 13:00:57;;;;;;;4.00;2.80;;;33.00;91.50;;;;;;4942690;29;20420;-72
2022/05/20 13:03:37;;;;;;;5.30;2.83;;;33.20;90.80;;;;;;4943141;29;20428;-73
2022/05/20 13:06:22;;;;;;;7.20;3.27;;;33.30;90.10;;;;;;4942227;29;20413;-73
2022/05/20 13:08:51;;;;;;;6.27;3.00;;;33.40;89.70;;;;;;4945377;28;20479;-72
2022/05/20 13:11:19;;;;;;;5.83;3.20;;;33.20;86.30;;;;;;4939913;28;20607;-73
2022/05/20 13:13:49;;;;;;;8.20;3.57;;;33.10;86.70;;;;;;4941766;29;20479;-73
2022/05/20 13:16:15;;;;;;;6.13;3.30;;;33.10;85.80;;;;;;4941505;29;20409;-74
2022/05/20 13:18:44;;;;;;;8.30;3.13;;;33.10;86.10;;;;;;4942352;28;20448;-74
2022/05/20 13:21:16;;;;;;;7.43;3.10;;;33.00;85.10;;;;;;4941862;29;20447;-72
2022/05/20 13:23:44;;;;;;;5.13;2.73;;;33.10;84.80;;;;;;4942396;29;20424;-73
2022/05/20 13:26:30;;;;;;;9.90;3.40;;;33.10;82.40;;;;;;4941667;29;20436;-73
2022/05/20 13:29:07;;;;;;;7.73;2.93;;;33.10;86.40;;;;;;4941535;29;20417;-73
2022/05/20 13:31:33;;;;;;;7.37;3.70;;;33.20;84.10;;;;;;4940775;29;20475;-72
2022/05/20 13:33:58;;;;;;;5.63;3.00;;;33.00;81.40;;;;;;4941414;29;20809;-73
2022/05/20 13:36:24;;;;;;;8.97;3.27;;;32.80;83.50;;;;;;4942584;29;20650;-73
2022/05/20 13:38:59;;;;;;;4.53;3.03;;;32.80;81.00;;;;;;4940989;29;20195;-72
2022/05/20 13:41:27;;;;;;;4.37;2.70;;;32.70;79.70;;;;;;4940510;29;20214;-74
2022/05/20 13:43:55;;;;;;;8.37;2.70;;;32.60;77.80;;;;;;4942618;29;20414;-74
2022/05/20 13:49:15;;;;;;;5.87;2.77;;;32.80;83.00;;;;;;4941975;29;20420;-73
2022/05/20 13:52:00;;;;;;;6.63;3.10;;;32.80;80.40;;;;;;4941594;29;20471;-73
2022/05/20 13:54:34;;;;;;;5.77;2.40;;;32.80;80.50;;;;;;4956821;28;20464;-73
2022/05/20 13:57:02;;;;;;;5.13;2.70;;;32.70;80.40;;;;;;4940806;29;20424;-74
2022/05/20 13:59:30;;;;;;;5.27;3.20;;;32.70;81.40;;;;;;4942978;28;20495;-74
2022/05/20 14:02:08;;;;;;;3.03;2.30;;;32.70;81.60;;;;;;4942209;29;20440;-74
2022/05/20 14:04:45;;;;;;;3.90;2.63;;;32.90;83.40;;;;;;4941072;29;20492;-74
2022/05/20 14:07:35;;;;;;;7.27;3.13;;;33.00;82.70;;;;;;4942426;29;20519;-74
2022/05/20 14:10:07;;;;;;;3.87;3.10;;;33.20;83.90;;;;;;4942043;29;20795;-73
2022/05/20 14:12:37;;;;;;;5.23;2.63;;;33.30;82.40;;;;;;4941767;29;20453;-72
2022/05/20 14:15:08;;;;;;;3.40;3.00;;;33.20;82.40;;;;;;4942042;29;20461;-73
2022/05/20 14:17:34;;;;;;;3.13;2.83;;;32.90;81.00;;;;;;4941801;29;20495;-73
2022/05/20 14:20:08;;;;;;;8.80;2.93;;;32.80;83.20;;;;;;4948758;28;20949;-72
2022/05/20 14:22:35;;;;;;;7.77;3.13;;;32.70;81.80;;;;;;4942295;29;20432;-73
2022/05/20 14:25:14;;;;;;;10.23;2.80;;;32.50;81.50;;;;;;4941278;29;20783;-72
2022/05/20 14:27:46;;;;;;;8.33;3.37;;;32.40;84.00;;;;;;4941823;29;20419;-72
2022/05/20 14:30:42;;;;;;;8.87;3.33;;;32.40;84.70;;;;;;4941308;29;20456;-73
2022/05/20 14:33:15;;;;;;;6.20;2.03;;;32.30;83.20;;;;;;4940932;29;20450;-72
2022/05/20 14:35:45;;;;;;;7.87;4.60;;;32.20;85.30;;;;;;4940514;29;20421;-73
2022/05/20 14:38:15;;;;;;;8.53;4.07;;;32.00;92.00;;;;;;4940792;29;20424;-70
2022/05/20 14:40:42;;;;;;;10.10;4.30;;;31.60;94.30;;;;;;4940944;29;20921;-72
2022/05/20 14:43:21;;;;;;;16.50;4.70;;;31.30;95.30;;;;;;4940463;29;20849;-73
2022/05/20 14:45:53;;;;;;;4.43;4.00;;;31.00;94.80;;;;;;4941234;29;21049;-73
2022/05/20 14:48:25;;;;;;;8.00;4.00;;;30.80;95.30;;;;;;4945500;29;20462;-72
2022/05/20 14:50:52;;;;;;;6.27;4.77;;;30.50;95.90;;;;;;4943483;29;20449;-72
2022/05/20 14:53:25;;;;;;;7.57;4.70;;;30.40;96.60;;;;;;4943423;29;20421;-72
2022/05/20 14:55:57;;;;;;;4.77;4.20;;;30.20;96.20;;;;;;4944052;29;20425;-73
2022/05/20 14:58:25;;;;;;;10.13;4.30;;;29.90;96.20;;;;;;4944831;29;20989;-73
2022/05/20 15:01:03;;;;;;;4.90;3.97;;;29.80;97.00;;;;;;4944352;29;20471;-72
2022/05/20 15:03:36;;;;;;;9.50;3.87;;;29.80;96.70;;;;;;4945074;29;20409;-71
2022/05/20 15:06:02;;;;;;;7.97;4.03;;;29.90;96.80;;;;;;4944038;29;20429;-73
2022/05/20 15:08:32;;;;;;;8.93;3.63;;;30.20;97.50;;;;;;4944582;28;21037;-73
2022/05/20 15:11:22;;;;;;;5.90;4.23;;;30.40;98.50;;;;;;4942658;29;20487;-73
2022/05/20 15:13:48;;;;;;;7.03;4.30;;;30.70;98.20;;;;;;4942169;29;20502;-73
2022/05/20 15:16:13;;;;;;;7.37;4.40;;;30.70;97.00;;;;;;4942424;29;20429;-72